sensor_id;sensor_type;location;lat;lon;timestamp;P1;durP1;ratioP1;P2;durP2;ratioP2
48014;SDS011;33780;51.034;7.120;2023-07-29T00:01:40;1.15;;;0.70;;
48014;SDS011;33780;51.034;7.120;2023-07-29T00:04:06;2.88;;;0.52;;
48014;SDS011;33780;51.034;7.120;2023-07-29T00:06:31;2.58;;;0.60;;
48014;SDS011;33780;51.034;7.120;2023-07-29T00:08:56;1.30;;;0.55;;
48014;SDS011;33780;51.034;7.120;2023-07-29T00:11:22;1.00;;;0.60;;
48014;SDS011;33780;51.034;7.120;2023-07-29T00:13:47;1.30;;;0.60;;
48014;SDS011;33780;51.034;7.120;2023-07-29T00:16:14;2.58;;;0.60;;
48014;SDS011;33780;51.034;7.120;2023-07-29T00:18:42;0.88;;;0.50;;
48014;SDS011;33780;51.034;7.120;2023-07-29T00:21:07;0.60;;;0.40;;
48014;SDS011;33780;51.034;7.120;2023-07-29T00:23:32;1.33;;;0.50;;
48014;SDS011;33780;51.034;7.120;2023-07-29T00:25:57;1.30;;;0.50;;
48014;SDS011;33780;51.034;7.120;2023-07-29T00:28:23;4.18;;;0.65;;
48014;SDS011;33780;51.034;7.120;2023-07-29T00:30:48;2.40;;;0.80;;
48014;SDS011;33780;51.034;7.120;2023-07-29T00:33:13;1.85;;;0.80;;
48014;SDS011;33780;51.034;7.120;2023-07-29T00:35:38;1.40;;;0.60;;
48014;SDS011;33780;51.034;7.120;2023-07-29T00:38:04;5.80;;;0.60;;
48014;SDS011;33780;51.034;7.120;2023-07-29T00:40:29;4.72;;;0.60;;
48014;SDS011;33780;51.034;7.120;2023-07-29T00:42:55;1.25;;;0.50;;
48014;SDS011;33780;51.034;7.120;2023-07-29T00:45:21;1.15;;;0.52;;
48014;SDS011;33780;51.034;7.120;2023-07-29T00:47:46;4.85;;;1.25;;
48014;SDS011;33780;51.034;7.120;2023-07-29T00:50:12;1.42;;;0.57;;
48014;SDS011;33780;51.034;7.120;2023-07-29T00:52:39;1.00;;;0.50;;
48014;SDS011;33780;51.034;7.120;2023-07-29T00:55:05;3.38;;;0.70;;
48014;SDS011;33780;51.034;7.120;2023-07-29T00:57:31;1.20;;;0.60;;
48014;SDS011;33780;51.034;7.120;2023-07-29T00:59:58;1.42;;;0.68;;
48014;SDS011;33780;51.034;7.120;2023-07-29T01:02:24;1.13;;;0.60;;
48014;SDS011;33780;51.034;7.120;2023-07-29T01:04:53;1.40;;;0.70;;
48014;SDS011;33780;51.034;7.120;2023-07-29T01:07:39;0.90;;;0.40;;
48014;SDS011;33780;51.034;7.120;2023-07-29T01:13:10;3.03;;;0.65;;
48014;SDS011;33780;51.034;7.120;2023-07-29T01:15:43;1.20;;;0.60;;
48014;SDS011;33780;51.034;7.120;2023-07-29T01:18:22;1.52;;;0.50;;
48014;SDS011;33780;51.034;7.120;2023-07-29T01:20:51;1.30;;;0.50;;
48014;SDS011;33780;51.034;7.120;2023-07-29T01:23:37;1.38;;;0.65;;
48014;SDS011;33780;51.034;7.120;2023-07-29T01:26:03;1.25;;;0.60;;
48014;SDS011;33780;51.034;7.120;2023-07-29T01:28:28;1.20;;;0.65;;
48014;SDS011;33780;51.034;7.120;2023-07-29T01:31:01;4.55;;;0.57;;
48014;SDS011;33780;51.034;7.120;2023-07-29T01:33:57;2.85;;;0.70;;
48014;SDS011;33780;51.034;7.120;2023-07-29T01:36:27;1.60;;;0.70;;
48014;SDS011;33780;51.034;7.120;2023-07-29T01:38:55;1.02;;;0.50;;
48014;SDS011;33780;51.034;7.120;2023-07-29T01:41:22;0.90;;;0.50;;
48014;SDS011;33780;51.034;7.120;2023-07-29T01:43:48;1.10;;;0.50;;
48014;SDS011;33780;51.034;7.120;2023-07-29T01:46:14;1.17;;;0.60;;
48014;SDS011;33780;51.034;7.120;2023-07-29T01:48:40;1.15;;;0.60;;
48014;SDS011;33780;51.034;7.120;2023-07-29T01:51:06;1.55;;;0.60;;
48014;SDS011;33780;51.034;7.120;2023-07-29T01:53:32;1.10;;;0.50;;
48014;SDS011;33780;51.034;7.120;2023-07-29T01:55:57;1.70;;;0.70;;
48014;SDS011;33780;51.034;7.120;2023-07-29T01:58:23;1.05;;;0.50;;
48014;SDS011;33780;51.034;7.120;2023-07-29T02:00:49;2.30;;;0.70;;
48014;SDS011;33780;51.034;7.120;2023-07-29T02:03:14;2.30;;;0.75;;
48014;SDS011;33780;51.034;7.120;2023-07-29T02:05:39;1.75;;;0.65;;
48014;SDS011;33780;51.034;7.120;2023-07-29T02:08:05;2.58;;;0.65;;
48014;SDS011;33780;51.034;7.120;2023-07-29T02:10:30;1.85;;;0.70;;
48014;SDS011;33780;51.034;7.120;2023-07-29T02:12:55;1.23;;;0.70;;
48014;SDS011;33780;51.034;7.120;2023-07-29T02:15:21;3.47;;;0.90;;
48014;SDS011;33780;51.034;7.120;2023-07-29T02:17:46;1.15;;;0.60;;
48014;SDS011;33780;51.034;7.120;2023-07-29T02:20:11;1.60;;;0.80;;
48014;SDS011;33780;51.034;7.120;2023-07-29T02:22:36;1.63;;;0.70;;
48014;SDS011;33780;51.034;7.120;2023-07-29T02:25:02;1.20;;;0.70;;
48014;SDS011;33780;51.034;7.120;2023-07-29T02:27:28;1.63;;;0.80;;
48014;SDS011;33780;51.034;7.120;2023-07-29T02:29:53;1.45;;;0.70;;
48014;SDS011;33780;51.034;7.120;2023-07-29T02:32:19;1.88;;;0.90;;
48014;SDS011;33780;51.034;7.120;2023-07-29T02:34:45;1.83;;;0.75;;
48014;SDS011;33780;51.034;7.120;2023-07-29T02:37:10;1.40;;;0.77;;
48014;SDS011;33780;51.034;7.120;2023-07-29T02:39:36;2.25;;;0.95;;
48014;SDS011;33780;51.034;7.120;2023-07-29T02:42:01;1.77;;;0.90;;
48014;SDS011;33780;51.034;7.120;2023-07-29T02:44:27;1.85;;;0.90;;
48014;SDS011;33780;51.034;7.120;2023-07-29T02:46:52;1.45;;;0.75;;
48014;SDS011;33780;51.034;7.120;2023-07-29T02:49:19;1.80;;;0.90;;
48014;SDS011;33780;51.034;7.120;2023-07-29T02:51:44;1.88;;;0.85;;
48014;SDS011;33780;51.034;7.120;2023-07-29T02:54:10;1.55;;;0.70;;
48014;SDS011;33780;51.034;7.120;2023-07-29T02:56:35;1.27;;;0.70;;
48014;SDS011;33780;51.034;7.120;2023-07-29T02:59:00;1.30;;;0.70;;
48014;SDS011;33780;51.034;7.120;2023-07-29T03:01:26;2.65;;;0.80;;
48014;SDS011;33780;51.034;7.120;2023-07-29T03:03:51;1.30;;;0.80;;
48014;SDS011;33780;51.034;7.120;2023-07-29T03:06:17;1.60;;;0.77;;
48014;SDS011;33780;51.034;7.120;2023-07-29T03:08:42;1.50;;;0.80;;
48014;SDS011;33780;51.034;7.120;2023-07-29T03:11:08;1.95;;;1.00;;
48014;SDS011;33780;51.034;7.120;2023-07-29T03:13:35;1.95;;;1.10;;
48014;SDS011;33780;51.034;7.120;2023-07-29T03:16:11;1.48;;;0.80;;
48014;SDS011;33780;51.034;7.120;2023-07-29T03:18:39;1.63;;;0.88;;
48014;SDS011;33780;51.034;7.120;2023-07-29T03:21:05;1.20;;;0.70;;
48014;SDS011;33780;51.034;7.120;2023-07-29T03:23:31;1.40;;;0.60;;
48014;SDS011;33780;51.034;7.120;2023-07-29T03:25:57;2.28;;;0.82;;
48014;SDS011;33780;51.034;7.120;2023-07-29T03:28:25;1.25;;;0.70;;
48014;SDS011;33780;51.034;7.120;2023-07-29T03:30:51;2.67;;;0.80;;
48014;SDS011;33780;51.034;7.120;2023-07-29T03:33:16;1.27;;;0.70;;
48014;SDS011;33780;51.034;7.120;2023-07-29T03:35:41;1.73;;;0.80;;
48014;SDS011;33780;51.034;7.120;2023-07-29T03:38:09;2.00;;;0.98;;
48014;SDS011;33780;51.034;7.120;2023-07-29T03:40:34;1.20;;;0.70;;
48014;SDS011;33780;51.034;7.120;2023-07-29T03:43:00;1.58;;;0.70;;
48014;SDS011;33780;51.034;7.120;2023-07-29T03:45:25;1.40;;;0.80;;
48014;SDS011;33780;51.034;7.120;2023-07-29T03:47:50;1.73;;;0.70;;
48014;SDS011;33780;51.034;7.120;2023-07-29T03:50:16;1.38;;;0.80;;
48014;SDS011;33780;51.034;7.120;2023-07-29T03:52:41;1.00;;;0.50;;
48014;SDS011;33780;51.034;7.120;2023-07-29T03:55:06;2.35;;;0.75;;
48014;SDS011;33780;51.034;7.120;2023-07-29T03:57:32;2.10;;;0.60;;
48014;SDS011;33780;51.034;7.120;2023-07-29T03:59:57;2.17;;;0.98;;
48014;SDS011;33780;51.034;7.120;2023-07-29T04:02:22;1.67;;;0.60;;
48014;SDS011;33780;51.034;7.120;2023-07-29T04:04:48;1.25;;;0.65;;
48014;SDS011;33780;51.034;7.120;2023-07-29T04:07:13;1.40;;;0.50;;
48014;SDS011;33780;51.034;7.120;2023-07-29T04:09:39;1.52;;;0.80;;
48014;SDS011;33780;51.034;7.120;2023-07-29T04:12:05;1.30;;;0.60;;
48014;SDS011;33780;51.034;7.120;2023-07-29T04:14:30;1.50;;;0.88;;
48014;SDS011;33780;51.034;7.120;2023-07-29T04:16:55;1.10;;;0.70;;
48014;SDS011;33780;51.034;7.120;2023-07-29T04:19:21;2.38;;;0.70;;
48014;SDS011;33780;51.034;7.120;2023-07-29T04:21:46;1.75;;;0.80;;
48014;SDS011;33780;51.034;7.120;2023-07-29T04:24:12;1.67;;;0.85;;
48014;SDS011;33780;51.034;7.120;2023-07-29T04:26:37;1.60;;;0.80;;
48014;SDS011;33780;51.034;7.120;2023-07-29T04:29:04;1.35;;;0.60;;
48014;SDS011;33780;51.034;7.120;2023-07-29T04:31:29;2.88;;;0.90;;
48014;SDS011;33780;51.034;7.120;2023-07-29T04:33:54;3.28;;;0.70;;
48014;SDS011;33780;51.034;7.120;2023-07-29T04:36:19;1.63;;;0.80;;
48014;SDS011;33780;51.034;7.120;2023-07-29T04:38:45;1.63;;;0.80;;
48014;SDS011;33780;51.034;7.120;2023-07-29T04:41:10;1.95;;;0.90;;
48014;SDS011;33780;51.034;7.120;2023-07-29T04:43:36;2.72;;;0.70;;
48014;SDS011;33780;51.034;7.120;2023-07-29T04:46:01;2.28;;;0.80;;
48014;SDS011;33780;51.034;7.120;2023-07-29T04:48:26;1.63;;;0.80;;
48014;SDS011;33780;51.034;7.120;2023-07-29T04:50:52;2.47;;;0.90;;
48014;SDS011;33780;51.034;7.120;2023-07-29T04:53:17;1.00;;;0.60;;
48014;SDS011;33780;51.034;7.120;2023-07-29T04:55:42;2.13;;;0.90;;
48014;SDS011;33780;51.034;7.120;2023-07-29T04:58:08;1.13;;;0.60;;
48014;SDS011;33780;51.034;7.120;2023-07-29T05:00:34;3.45;;;0.90;;
48014;SDS011;33780;51.034;7.120;2023-07-29T05:02:59;2.03;;;0.98;;
48014;SDS011;33780;51.034;7.120;2023-07-29T05:05:26;3.70;;;1.05;;
48014;SDS011;33780;51.034;7.120;2023-07-29T05:07:51;2.97;;;0.70;;
48014;SDS011;33780;51.034;7.120;2023-07-29T05:10:16;1.10;;;0.50;;
48014;SDS011;33780;51.034;7.120;2023-07-29T05:12:42;3.50;;;0.70;;
48014;SDS011;33780;51.034;7.120;2023-07-29T05:15:07;1.30;;;0.70;;
48014;SDS011;33780;51.034;7.120;2023-07-29T05:17:33;3.28;;;0.77;;
48014;SDS011;33780;51.034;7.120;2023-07-29T05:19:58;1.98;;;0.88;;
48014;SDS011;33780;51.034;7.120;2023-07-29T05:22:24;1.65;;;0.82;;
48014;SDS011;33780;51.034;7.120;2023-07-29T05:24:49;1.67;;;0.77;;
48014;SDS011;33780;51.034;7.120;2023-07-29T05:27:15;1.52;;;0.82;;
48014;SDS011;33780;51.034;7.120;2023-07-29T05:29:40;3.03;;;1.10;;
48014;SDS011;33780;51.034;7.120;2023-07-29T05:32:05;2.20;;;0.90;;
48014;SDS011;33780;51.034;7.120;2023-07-29T05:34:31;1.73;;;0.93;;
48014;SDS011;33780;51.034;7.120;2023-07-29T05:36:56;1.70;;;0.85;;
48014;SDS011;33780;51.034;7.120;2023-07-29T05:39:21;2.08;;;1.00;;
48014;SDS011;33780;51.034;7.120;2023-07-29T05:41:46;1.92;;;0.98;;
48014;SDS011;33780;51.034;7.120;2023-07-29T05:44:12;2.10;;;0.77;;
48014;SDS011;33780;51.034;7.120;2023-07-29T05:46:37;3.22;;;1.10;;
48014;SDS011;33780;51.034;7.120;2023-07-29T05:49:02;4.05;;;0.90;;
48014;SDS011;33780;51.034;7.120;2023-07-29T05:51:28;1.73;;;0.90;;
48014;SDS011;33780;51.034;7.120;2023-07-29T05:53:53;1.98;;;0.90;;
48014;SDS011;33780;51.034;7.120;2023-07-29T05:56:18;1.58;;;0.90;;
48014;SDS011;33780;51.034;7.120;2023-07-29T05:58:44;1.98;;;0.93;;
48014;SDS011;33780;51.034;7.120;2023-07-29T06:01:09;1.52;;;0.70;;
48014;SDS011;33780;51.034;7.120;2023-07-29T06:03:34;2.58;;;0.80;;
48014;SDS011;33780;51.034;7.120;2023-07-29T06:06:00;1.88;;;1.00;;
48014;SDS011;33780;51.034;7.120;2023-07-29T06:08:25;2.55;;;1.08;;
48014;SDS011;33780;51.034;7.120;2023-07-29T06:10:53;2.42;;;1.20;;
48014;SDS011;33780;51.034;7.120;2023-07-29T06:13:18;2.08;;;1.15;;
48014;SDS011;33780;51.034;7.120;2023-07-29T06:15:44;2.05;;;1.20;;
48014;SDS011;33780;51.034;7.120;2023-07-29T06:18:09;1.92;;;0.98;;
48014;SDS011;33780;51.034;7.120;2023-07-29T06:20:34;1.90;;;0.98;;
48014;SDS011;33780;51.034;7.120;2023-07-29T06:22:59;1.80;;;0.90;;
48014;SDS011;33780;51.034;7.120;2023-07-29T06:25:25;1.70;;;1.00;;
48014;SDS011;33780;51.034;7.120;2023-07-29T06:27:50;2.00;;;1.10;;
48014;SDS011;33780;51.034;7.120;2023-07-29T06:30:15;2.42;;;1.15;;
48014;SDS011;33780;51.034;7.120;2023-07-29T06:32:40;1.95;;;1.08;;
48014;SDS011;33780;51.034;7.120;2023-07-29T06:35:06;1.65;;;0.90;;
48014;SDS011;33780;51.034;7.120;2023-07-29T06:37:31;4.22;;;1.10;;
48014;SDS011;33780;51.034;7.120;2023-07-29T06:39:58;2.00;;;0.98;;
48014;SDS011;33780;51.034;7.120;2023-07-29T06:42:23;3.10;;;1.23;;
48014;SDS011;33780;51.034;7.120;2023-07-29T06:44:48;2.28;;;1.00;;
48014;SDS011;33780;51.034;7.120;2023-07-29T06:47:14;2.70;;;1.10;;
48014;SDS011;33780;51.034;7.120;2023-07-29T06:49:39;2.03;;;1.00;;
48014;SDS011;33780;51.034;7.120;2023-07-29T06:52:04;1.90;;;1.08;;
48014;SDS011;33780;51.034;7.120;2023-07-29T06:54:30;2.58;;;1.00;;
48014;SDS011;33780;51.034;7.120;2023-07-29T06:56:55;1.85;;;1.10;;
48014;SDS011;33780;51.034;7.120;2023-07-29T06:59:20;2.38;;;1.05;;
48014;SDS011;33780;51.034;7.120;2023-07-29T07:01:46;2.35;;;1.00;;
48014;SDS011;33780;51.034;7.120;2023-07-29T07:04:11;2.45;;;0.90;;
48014;SDS011;33780;51.034;7.120;2023-07-29T07:06:36;1.80;;;0.93;;
48014;SDS011;33780;51.034;7.120;2023-07-29T07:09:02;1.70;;;0.80;;
48014;SDS011;33780;51.034;7.120;2023-07-29T07:11:27;2.00;;;1.23;;
48014;SDS011;33780;51.034;7.120;2023-07-29T07:13:52;1.83;;;0.95;;
48014;SDS011;33780;51.034;7.120;2023-07-29T07:16:18;2.45;;;1.15;;
48014;SDS011;33780;51.034;7.120;2023-07-29T07:18:43;1.98;;;0.93;;
48014;SDS011;33780;51.034;7.120;2023-07-29T07:21:08;2.70;;;1.30;;
48014;SDS011;33780;51.034;7.120;2023-07-29T07:23:34;2.38;;;1.20;;
48014;SDS011;33780;51.034;7.120;2023-07-29T07:25:59;2.50;;;1.10;;
48014;SDS011;33780;51.034;7.120;2023-07-29T07:28:24;2.00;;;1.00;;
48014;SDS011;33780;51.034;7.120;2023-07-29T07:30:49;1.88;;;0.98;;
48014;SDS011;33780;51.034;7.120;2023-07-29T07:33:15;2.33;;;0.90;;
48014;SDS011;33780;51.034;7.120;2023-07-29T07:35:40;3.00;;;1.08;;
48014;SDS011;33780;51.034;7.120;2023-07-29T07:38:07;3.17;;;0.98;;
48014;SDS011;33780;51.034;7.120;2023-07-29T07:40:34;2.10;;;0.90;;
48014;SDS011;33780;51.034;7.120;2023-07-29T07:43:00;2.00;;;0.60;;
48014;SDS011;33780;51.034;7.120;2023-07-29T07:45:25;1.40;;;0.60;;
48014;SDS011;33780;51.034;7.120;2023-07-29T07:47:51;1.75;;;0.77;;
48014;SDS011;33780;51.034;7.120;2023-07-29T07:50:18;1.40;;;0.65;;
48014;SDS011;33780;51.034;7.120;2023-07-29T07:52:43;3.13;;;0.60;;
48014;SDS011;33780;51.034;7.120;2023-07-29T07:55:08;1.25;;;0.50;;
48014;SDS011;33780;51.034;7.120;2023-07-29T07:57:34;1.20;;;0.50;;
48014;SDS011;33780;51.034;7.120;2023-07-29T07:59:59;1.77;;;0.80;;
48014;SDS011;33780;51.034;7.120;2023-07-29T08:02:24;2.95;;;0.82;;
48014;SDS011;33780;51.034;7.120;2023-07-29T08:04:49;1.50;;;0.50;;
48014;SDS011;33780;51.034;7.120;2023-07-29T08:07:15;1.58;;;0.50;;
48014;SDS011;33780;51.034;7.120;2023-07-29T08:09:40;1.15;;;0.60;;
48014;SDS011;33780;51.034;7.120;2023-07-29T08:12:05;1.42;;;0.60;;
48014;SDS011;33780;51.034;7.120;2023-07-29T08:14:31;1.10;;;0.50;;
48014;SDS011;33780;51.034;7.120;2023-07-29T08:16:56;1.00;;;0.43;;
48014;SDS011;33780;51.034;7.120;2023-07-29T08:19:22;1.80;;;0.60;;
48014;SDS011;33780;51.034;7.120;2023-07-29T08:21:47;1.80;;;0.80;;
48014;SDS011;33780;51.034;7.120;2023-07-29T08:24:13;1.48;;;0.68;;
48014;SDS011;33780;51.034;7.120;2023-07-29T08:26:38;1.38;;;0.70;;
48014;SDS011;33780;51.034;7.120;2023-07-29T08:29:03;1.30;;;0.60;;
48014;SDS011;33780;51.034;7.120;2023-07-29T08:31:28;2.10;;;0.65;;
48014;SDS011;33780;51.034;7.120;2023-07-29T08:33:55;2.20;;;0.70;;
48014;SDS011;33780;51.034;7.120;2023-07-29T08:36:20;1.33;;;0.60;;
48014;SDS011;33780;51.034;7.120;2023-07-29T08:38:46;1.35;;;0.68;;
48014;SDS011;33780;51.034;7.120;2023-07-29T08:43:42;1.70;;;0.60;;
48014;SDS011;33780;51.034;7.120;2023-07-29T08:46:10;1.98;;;0.70;;
48014;SDS011;33780;51.034;7.120;2023-07-29T08:48:39;3.30;;;0.60;;
48014;SDS011;33780;51.034;7.120;2023-07-29T08:51:05;1.30;;;0.50;;
48014;SDS011;33780;51.034;7.120;2023-07-29T08:53:33;1.40;;;0.50;;
48014;SDS011;33780;51.034;7.120;2023-07-29T08:55:59;2.00;;;0.70;;
48014;SDS011;33780;51.034;7.120;2023-07-29T08:58:24;1.52;;;0.60;;
48014;SDS011;33780;51.034;7.120;2023-07-29T09:00:50;1.85;;;0.80;;
48014;SDS011;33780;51.034;7.120;2023-07-29T09:03:15;1.25;;;0.60;;
48014;SDS011;33780;51.034;7.120;2023-07-29T09:05:41;2.17;;;1.10;;
48014;SDS011;33780;51.034;7.120;2023-07-29T09:08:06;2.72;;;1.35;;
48014;SDS011;33780;51.034;7.120;2023-07-29T09:10:35;4.82;;;1.60;;
48014;SDS011;33780;51.034;7.120;2023-07-29T09:13:01;2.92;;;1.10;;
48014;SDS011;33780;51.034;7.120;2023-07-29T09:15:28;2.85;;;1.60;;
48014;SDS011;33780;51.034;7.120;2023-07-29T09:17:58;3.38;;;1.70;;
48014;SDS011;33780;51.034;7.120;2023-07-29T09:20:27;3.15;;;1.55;;
48014;SDS011;33780;51.034;7.120;2023-07-29T09:22:58;2.50;;;1.20;;
48014;SDS011;33780;51.034;7.120;2023-07-29T09:25:27;2.67;;;1.33;;
48014;SDS011;33780;51.034;7.120;2023-07-29T09:27:59;2.53;;;1.30;;
48014;SDS011;33780;51.034;7.120;2023-07-29T09:30:26;2.70;;;1.42;;
48014;SDS011;33780;51.034;7.120;2023-07-29T09:32:58;2.10;;;1.33;;
48014;SDS011;33780;51.034;7.120;2023-07-29T09:35:24;2.53;;;1.20;;
48014;SDS011;33780;51.034;7.120;2023-07-29T09:37:52;2.97;;;1.65;;
48014;SDS011;33780;51.034;7.120;2023-07-29T09:40:18;1.90;;;0.90;;
48014;SDS011;33780;51.034;7.120;2023-07-29T09:42:53;1.50;;;0.85;;
48014;SDS011;33780;51.034;7.120;2023-07-29T09:45:26;1.92;;;0.80;;
48014;SDS011;33780;51.034;7.120;2023-07-29T09:47:52;1.30;;;0.80;;
48014;SDS011;33780;51.034;7.120;2023-07-29T09:50:18;1.55;;;0.77;;
48014;SDS011;33780;51.034;7.120;2023-07-29T09:52:51;4.40;;;0.65;;
48014;SDS011;33780;51.034;7.120;2023-07-29T09:55:18;1.40;;;0.60;;
48014;SDS011;33780;51.034;7.120;2023-07-29T09:57:45;1.15;;;0.68;;
48014;SDS011;33780;51.034;7.120;2023-07-29T10:00:14;5.35;;;0.70;;
48014;SDS011;33780;51.034;7.120;2023-07-29T10:02:40;0.93;;;0.45;;
48014;SDS011;33780;51.034;7.120;2023-07-29T10:07:40;1.15;;;0.60;;
48014;SDS011;33780;51.034;7.120;2023-07-29T10:10:06;1.42;;;0.50;;
48014;SDS011;33780;51.034;7.120;2023-07-29T10:12:32;1.73;;;0.75;;
48014;SDS011;33780;51.034;7.120;2023-07-29T10:15:05;1.65;;;0.75;;
48014;SDS011;33780;51.034;7.120;2023-07-29T10:17:38;1.95;;;0.60;;
48014;SDS011;33780;51.034;7.120;2023-07-29T10:20:04;0.90;;;0.50;;
48014;SDS011;33780;51.034;7.120;2023-07-29T10:25:08;1.10;;;0.40;;
48014;SDS011;33780;51.034;7.120;2023-07-29T10:27:45;0.68;;;0.40;;
48014;SDS011;33780;51.034;7.120;2023-07-29T10:30:14;1.00;;;0.45;;
48014;SDS011;33780;51.034;7.120;2023-07-29T10:32:43;0.95;;;0.50;;
48014;SDS011;33780;51.034;7.120;2023-07-29T10:35:12;0.90;;;0.50;;
48014;SDS011;33780;51.034;7.120;2023-07-29T10:37:38;1.50;;;0.68;;
48014;SDS011;33780;51.034;7.120;2023-07-29T10:40:08;1.95;;;0.60;;
48014;SDS011;33780;51.034;7.120;2023-07-29T10:42:35;3.08;;;0.60;;
48014;SDS011;33780;51.034;7.120;2023-07-29T10:45:16;1.88;;;0.90;;
48014;SDS011;33780;51.034;7.120;2023-07-29T10:47:43;1.45;;;0.60;;
48014;SDS011;33780;51.034;7.120;2023-07-29T10:50:16;1.80;;;0.63;;
48014;SDS011;33780;51.034;7.120;2023-07-29T10:52:43;1.38;;;0.68;;
48014;SDS011;33780;51.034;7.120;2023-07-29T10:55:28;1.48;;;0.75;;
48014;SDS011;33780;51.034;7.120;2023-07-29T10:58:06;1.67;;;0.60;;
48014;SDS011;33780;51.034;7.120;2023-07-29T11:00:44;2.20;;;0.80;;
48014;SDS011;33780;51.034;7.120;2023-07-29T11:03:11;2.63;;;0.70;;
48014;SDS011;33780;51.034;7.120;2023-07-29T11:05:42;1.80;;;0.52;;
48014;SDS011;33780;51.034;7.120;2023-07-29T11:08:43;1.55;;;0.70;;
48014;SDS011;33780;51.034;7.120;2023-07-29T11:11:08;2.00;;;0.63;;
48014;SDS011;33780;51.034;7.120;2023-07-29T11:13:37;1.25;;;0.60;;
48014;SDS011;33780;51.034;7.120;2023-07-29T11:16:03;1.52;;;0.60;;
48014;SDS011;33780;51.034;7.120;2023-07-29T11:18:30;1.80;;;0.70;;
48014;SDS011;33780;51.034;7.120;2023-07-29T11:20:57;1.10;;;0.50;;
48014;SDS011;33780;51.034;7.120;2023-07-29T11:23:30;1.25;;;0.60;;
48014;SDS011;33780;51.034;7.120;2023-07-29T11:26:00;1.10;;;0.50;;
48014;SDS011;33780;51.034;7.120;2023-07-29T11:28:26;1.23;;;0.43;;
48014;SDS011;33780;51.034;7.120;2023-07-29T11:30:55;0.98;;;0.45;;
48014;SDS011;33780;51.034;7.120;2023-07-29T11:33:22;1.73;;;0.73;;
48014;SDS011;33780;51.034;7.120;2023-07-29T11:35:50;1.80;;;0.50;;
48014;SDS011;33780;51.034;7.120;2023-07-29T11:38:18;1.02;;;0.50;;
48014;SDS011;33780;51.034;7.120;2023-07-29T11:40:56;0.90;;;0.40;;
48014;SDS011;33780;51.034;7.120;2023-07-29T11:43:25;1.10;;;0.50;;
48014;SDS011;33780;51.034;7.120;2023-07-29T11:45:51;1.77;;;0.68;;
48014;SDS011;33780;51.034;7.120;2023-07-29T11:48:17;1.20;;;0.60;;
48014;SDS011;33780;51.034;7.120;2023-07-29T11:50:53;0.95;;;0.50;;
48014;SDS011;33780;51.034;7.120;2023-07-29T11:53:25;1.30;;;0.60;;
48014;SDS011;33780;51.034;7.120;2023-07-29T11:55:58;1.10;;;0.70;;
48014;SDS011;33780;51.034;7.120;2023-07-29T11:58:24;1.15;;;0.50;;
48014;SDS011;33780;51.034;7.120;2023-07-29T12:01:01;1.33;;;0.70;;
48014;SDS011;33780;51.034;7.120;2023-07-29T12:03:30;1.00;;;0.50;;
48014;SDS011;33780;51.034;7.120;2023-07-29T12:05:55;1.52;;;0.70;;
48014;SDS011;33780;51.034;7.120;2023-07-29T12:08:24;2.42;;;0.77;;
48014;SDS011;33780;51.034;7.120;2023-07-29T12:10:53;1.33;;;0.60;;
48014;SDS011;33780;51.034;7.120;2023-07-29T12:13:18;1.60;;;0.77;;
48014;SDS011;33780;51.034;7.120;2023-07-29T12:15:46;1.70;;;0.60;;
48014;SDS011;33780;51.034;7.120;2023-07-29T12:18:11;2.25;;;0.90;;
48014;SDS011;33780;51.034;7.120;2023-07-29T12:20:40;1.23;;;0.60;;
48014;SDS011;33780;51.034;7.120;2023-07-29T12:23:06;1.70;;;0.70;;
48014;SDS011;33780;51.034;7.120;2023-07-29T12:25:33;1.40;;;0.70;;
48014;SDS011;33780;51.034;7.120;2023-07-29T12:28:04;1.48;;;0.73;;
48014;SDS011;33780;51.034;7.120;2023-07-29T12:30:40;1.40;;;0.60;;
48014;SDS011;33780;51.034;7.120;2023-07-29T12:33:09;0.95;;;0.50;;
48014;SDS011;33780;51.034;7.120;2023-07-29T12:35:37;0.90;;;0.50;;
48014;SDS011;33780;51.034;7.120;2023-07-29T12:38:09;1.00;;;0.50;;
48014;SDS011;33780;51.034;7.120;2023-07-29T12:40:45;1.73;;;0.50;;
48014;SDS011;33780;51.034;7.120;2023-07-29T12:43:11;1.23;;;0.60;;
48014;SDS011;33780;51.034;7.120;2023-07-29T12:45:36;1.50;;;0.70;;
48014;SDS011;33780;51.034;7.120;2023-07-29T12:48:06;1.30;;;0.70;;
48014;SDS011;33780;51.034;7.120;2023-07-29T12:50:31;1.00;;;0.50;;
48014;SDS011;33780;51.034;7.120;2023-07-29T12:52:59;1.13;;;0.60;;
48014;SDS011;33780;51.034;7.120;2023-07-29T12:55:27;1.67;;;0.50;;
48014;SDS011;33780;51.034;7.120;2023-07-29T12:57:52;2.47;;;0.60;;
48014;SDS011;33780;51.034;7.120;2023-07-29T13:00:18;1.38;;;0.57;;
48014;SDS011;33780;51.034;7.120;2023-07-29T13:02:46;1.83;;;0.77;;
48014;SDS011;33780;51.034;7.120;2023-07-29T13:05:17;1.95;;;0.57;;
48014;SDS011;33780;51.034;7.120;2023-07-29T13:07:47;1.20;;;0.60;;
48014;SDS011;33780;51.034;7.120;2023-07-29T13:10:20;1.10;;;0.52;;
48014;SDS011;33780;51.034;7.120;2023-07-29T13:12:51;1.42;;;0.70;;
48014;SDS011;33780;51.034;7.120;2023-07-29T13:15:22;2.38;;;0.60;;
48014;SDS011;33780;51.034;7.120;2023-07-29T13:17:57;1.40;;;0.50;;
48014;SDS011;33780;51.034;7.120;2023-07-29T13:20:29;1.20;;;0.60;;
48014;SDS011;33780;51.034;7.120;2023-07-29T13:23:02;1.52;;;0.68;;
48014;SDS011;33780;51.034;7.120;2023-07-29T13:25:27;1.70;;;0.80;;
48014;SDS011;33780;51.034;7.120;2023-07-29T13:27:53;1.85;;;0.73;;
48014;SDS011;33780;51.034;7.120;2023-07-29T13:30:21;1.85;;;0.80;;
48014;SDS011;33780;51.034;7.120;2023-07-29T13:32:47;1.42;;;0.85;;
48014;SDS011;33780;51.034;7.120;2023-07-29T13:35:12;1.48;;;0.60;;
48014;SDS011;33780;51.034;7.120;2023-07-29T13:37:37;1.00;;;0.50;;
48014;SDS011;33780;51.034;7.120;2023-07-29T13:40:03;1.42;;;0.60;;
48014;SDS011;33780;51.034;7.120;2023-07-29T13:42:31;1.77;;;0.70;;
48014;SDS011;33780;51.034;7.120;2023-07-29T13:45:05;1.63;;;0.75;;
48014;SDS011;33780;51.034;7.120;2023-07-29T13:47:31;1.92;;;0.68;;
48014;SDS011;33780;51.034;7.120;2023-07-29T13:49:56;0.85;;;0.50;;
48014;SDS011;33780;51.034;7.120;2023-07-29T13:52:21;1.35;;;0.70;;
48014;SDS011;33780;51.034;7.120;2023-07-29T13:54:47;1.35;;;0.50;;
48014;SDS011;33780;51.034;7.120;2023-07-29T13:57:12;1.35;;;0.70;;
48014;SDS011;33780;51.034;7.120;2023-07-29T13:59:37;2.33;;;0.80;;
48014;SDS011;33780;51.034;7.120;2023-07-29T14:02:04;2.20;;;0.82;;
48014;SDS011;33780;51.034;7.120;2023-07-29T14:04:30;2.00;;;0.82;;
48014;SDS011;33780;51.034;7.120;2023-07-29T14:06:55;1.55;;;0.70;;
48014;SDS011;33780;51.034;7.120;2023-07-29T14:09:20;1.95;;;0.70;;
48014;SDS011;33780;51.034;7.120;2023-07-29T14:11:46;2.13;;;0.90;;
48014;SDS011;33780;51.034;7.120;2023-07-29T14:14:11;1.25;;;0.65;;
48014;SDS011;33780;51.034;7.120;2023-07-29T14:16:36;2.75;;;0.73;;
48014;SDS011;33780;51.034;7.120;2023-07-29T14:19:02;1.55;;;0.80;;
48014;SDS011;33780;51.034;7.120;2023-07-29T14:21:27;1.70;;;0.90;;
48014;SDS011;33780;51.034;7.120;2023-07-29T14:23:52;1.20;;;0.60;;
48014;SDS011;33780;51.034;7.120;2023-07-29T14:26:17;1.58;;;0.70;;
48014;SDS011;33780;51.034;7.120;2023-07-29T14:28:43;1.55;;;0.90;;
48014;SDS011;33780;51.034;7.120;2023-07-29T14:31:08;1.60;;;0.77;;
48014;SDS011;33780;51.034;7.120;2023-07-29T14:33:33;2.08;;;0.80;;
48014;SDS011;33780;51.034;7.120;2023-07-29T14:35:58;1.30;;;0.70;;
48014;SDS011;33780;51.034;7.120;2023-07-29T14:38:24;1.25;;;0.70;;
48014;SDS011;33780;51.034;7.120;2023-07-29T14:40:51;1.25;;;0.60;;
48014;SDS011;33780;51.034;7.120;2023-07-29T14:43:22;1.95;;;0.90;;
48014;SDS011;33780;51.034;7.120;2023-07-29T14:45:48;1.70;;;0.75;;
48014;SDS011;33780;51.034;7.120;2023-07-29T14:48:13;2.30;;;0.85;;
48014;SDS011;33780;51.034;7.120;2023-07-29T14:50:39;1.60;;;0.80;;
48014;SDS011;33780;51.034;7.120;2023-07-29T14:53:08;1.60;;;0.60;;
48014;SDS011;33780;51.034;7.120;2023-07-29T14:55:34;1.75;;;0.70;;
48014;SDS011;33780;51.034;7.120;2023-07-29T14:58:03;2.47;;;0.70;;